Union, New Jersey
Current Conditions -  °F | °C
As of 8:51 PM on Saturday 20 Dec 2014 (Local Time) from KEWR Reporting Station
Overcast Overcast  
Wind Chill: 27°   Ceiling: 3100
Heat Index: 33°   Visibility: 10mi
Dew Point: 21°   Wind: 7mph
Humidity: 61%   Direction: 340°NNW
Pressure: 30.3"   Gusts: NA
Location:  40.7°N, 74.27°W
Report Text: KEWR 210151Z 34006KT 10SM OVC031 01/M06 A3030 RMK AO2 SLP260 T00061061
Loading
Personal Weather Stations






























Interactive Weather Map New forecast layout! Learn more

10-Day Weather Forecast

Advertisements
Track Severe Weather on mobile